CheckWX is a tool to help pilots better visualize weather data.  It is not intended as a substitute for an official pre-flight weather briefing.

08:46:03 UTC

FAEO METAR
Ermelo Airport
Ermelo, South Africa
Current

48 mins ago

FAEO 230758Z 03007KT 9999 SCT012 16/12 Q1027
Observed
Apr-23 @ 07:58 UTC
Wind
  • 030° at 7 KTS
Visibility
10,000+ meters
Flight Rules
VFR
Cloud Levels
  • Scattered at 1,200' AGL
Temperature
16°C / 61°F
Dewpoint
12°C / 54°F
Humidity
77%
Altimeter
30.32" Hg
Pressure
1026.92 hPa
Previous

2 hours ago

FAEO 230656Z AUTO 04008KT //// // ////// 14/12 Q1027
Observed
Apr-23 @ 06:56 UTC
Wind
  • 040° at 8 KTS
Visibility
Temperature
14°C / 57°F
Dewpoint
12°C / 54°F
Humidity
88%
Altimeter
30.32" Hg
Pressure
1026.92 hPa
Previous

23 hours ago

FAEO 220946Z 07008KT 9999 BKN015 16/12 Q1026
Observed
Apr-22 @ 09:46 UTC
Wind
  • 070° at 8 KTS
Visibility
10,000+ meters
Flight Rules
MVFR
Cloud Levels
  • Broken at 1,500' AGL
Temperature
16°C / 61°F
Dewpoint
12°C / 54°F
Humidity
77%
Altimeter
30.3" Hg
Pressure
1025.92 hPa